createdAt,value
2018-12-24T00:00:37.624Z,0.00
2018-12-24T00:01:37.596Z,0.00
2018-12-24T00:02:37.548Z,0.00
2018-12-24T00:03:37.537Z,0.00
2018-12-24T00:04:37.528Z,0.00
2018-12-24T00:05:37.515Z,0.00
2018-12-24T00:06:37.605Z,0.00
2018-12-24T00:07:37.492Z,0.00
2018-12-24T00:08:37.483Z,0.00
2018-12-24T00:09:37.479Z,0.00
2018-12-24T00:10:37.458Z,0.00
2018-12-24T00:11:37.474Z,0.00
2018-12-24T00:12:37.438Z,0.00
2018-12-24T00:13:37.453Z,0.00
2018-12-24T00:14:37.423Z,0.00
2018-12-24T00:15:37.403Z,0.00
2018-12-24T00:16:37.413Z,0.00
2018-12-24T00:17:37.379Z,0.00
2018-12-24T00:18:37.370Z,0.00
2018-12-24T00:19:37.359Z,0.00
2018-12-24T00:20:37.347Z,0.00
2018-12-24T00:21:37.369Z,0.00
2018-12-24T00:22:37.326Z,0.00
2018-12-24T00:23:37.313Z,0.00
2018-12-24T00:24:37.302Z,0.00
2018-12-24T00:25:37.292Z,0.00
2018-12-24T00:26:37.279Z,0.00
2018-12-24T00:27:37.295Z,0.00
2018-12-24T00:28:37.258Z,0.00
2018-12-24T00:29:37.246Z,0.00
2018-12-24T00:30:37.234Z,0.00
2018-12-24T00:31:37.224Z,0.00
2018-12-24T00:32:37.239Z,0.00
2018-12-24T00:33:37.202Z,0.00
2018-12-24T00:34:37.202Z,0.00
2018-12-24T00:35:37.179Z,0.00
2018-12-24T00:36:37.180Z,0.00
2018-12-24T00:37:37.180Z,0.00
2018-12-24T00:38:37.148Z,0.00
2018-12-24T00:39:37.135Z,0.00
2018-12-24T00:40:37.130Z,0.00
2018-12-24T00:41:37.115Z,0.00
2018-12-24T00:42:37.126Z,0.00
2018-12-24T00:43:37.094Z,0.00
2018-12-24T00:44:37.085Z,0.00
2018-12-24T00:45:37.067Z,0.00
2018-12-24T00:46:37.062Z,0.00
2018-12-24T00:47:37.069Z,0.00
2018-12-24T00:48:37.035Z,0.00
2018-12-24T00:49:37.023Z,0.00
2018-12-24T00:50:37.013Z,0.00
2018-12-24T00:51:37.007Z,0.00
2018-12-24T00:52:37.013Z,0.00
2018-12-24T00:53:36.980Z,0.00
2018-12-24T00:54:36.969Z,0.00
2018-12-24T00:55:36.958Z,0.00
2018-12-24T00:56:36.945Z,0.00
2018-12-24T00:57:36.968Z,0.00
2018-12-24T00:58:36.924Z,0.00
2018-12-24T00:59:36.912Z,0.00
2018-12-24T01:00:36.906Z,0.00
2018-12-24T01:01:36.898Z,0.00
2018-12-24T01:02:36.880Z,0.00
2018-12-24T01:03:36.890Z,0.00
2018-12-24T01:04:36.863Z,0.00
2018-12-24T01:05:36.848Z,0.00
2018-12-24T01:06:36.842Z,0.00
2018-12-24T01:07:36.823Z,0.00
2018-12-24T01:08:36.837Z,0.00
2018-12-24T01:09:36.805Z,0.00
2018-12-24T01:10:36.793Z,0.00
2018-12-24T01:11:36.782Z,0.00
2018-12-24T01:12:36.773Z,0.00
2018-12-24T01:13:36.789Z,0.00
2018-12-24T01:14:36.748Z,0.00
2018-12-24T01:15:36.746Z,0.00
2018-12-24T01:16:36.728Z,0.00
2018-12-24T01:17:36.725Z,0.00
2018-12-24T01:18:36.727Z,0.00
2018-12-24T01:19:36.694Z,0.00
2018-12-24T01:20:36.729Z,0.00
2018-12-24T01:21:36.675Z,0.00
2018-12-24T01:22:36.658Z,0.00
2018-12-24T01:23:36.720Z,0.00
2018-12-24T01:24:36.637Z,0.00
2018-12-24T01:25:36.626Z,0.00
2018-12-24T01:26:36.617Z,0.00
2018-12-24T01:27:36.601Z,0.00
2018-12-24T01:28:36.590Z,0.00
2018-12-24T01:29:36.634Z,0.00
2018-12-24T01:30:36.573Z,0.00
2018-12-24T01:31:36.561Z,0.00
2018-12-24T01:32:36.574Z,0.00
2018-12-24T01:33:36.538Z,0.00
2018-12-24T01:34:36.551Z,0.00
2018-12-24T01:35:36.515Z,0.00
2018-12-24T01:36:36.501Z,0.00
2018-12-24T01:37:36.491Z,0.00
2018-12-24T01:38:36.480Z,0.00
2018-12-24T01:39:36.499Z,0.00
2018-12-24T01:40:36.462Z,0.00
2018-12-24T01:41:36.463Z,0.00
2018-12-24T01:42:36.439Z,0.00
2018-12-24T01:43:36.443Z,0.00
2018-12-24T01:44:36.472Z,0.00
2018-12-24T01:45:36.419Z,0.00
2018-12-24T01:46:36.390Z,0.00
2018-12-24T01:47:36.383Z,0.00
2018-12-24T01:48:36.367Z,0.00
2018-12-24T01:49:36.379Z,0.00
2018-12-24T01:50:36.345Z,0.00
2018-12-24T01:51:44.658Z,0.00
2018-12-24T01:52:36.326Z,0.00
2018-12-24T01:53:36.318Z,0.00
2018-12-24T01:54:36.325Z,0.00
2018-12-24T01:55:36.291Z,0.00
2018-12-24T01:56:36.283Z,0.00
2018-12-24T01:57:36.382Z,0.00
2018-12-24T01:58:36.258Z,0.00
2018-12-24T01:59:36.271Z,0.00
2018-12-24T02:00:36.241Z,0.00
2018-12-24T02:01:36.226Z,0.00
2018-12-24T02:02:36.215Z,0.00
2018-12-24T02:03:36.210Z,0.00
2018-12-24T02:04:36.213Z,0.00
2018-12-24T02:05:36.180Z,0.00
2018-12-24T02:06:36.197Z,0.00
2018-12-24T02:07:44.430Z,0.00
2018-12-24T02:08:36.148Z,0.00
2018-12-24T02:09:46.781Z,0.00
2018-12-24T02:10:36.123Z,0.00
2018-12-24T02:11:36.111Z,0.00
2018-12-24T02:12:42.214Z,0.00
2018-12-24T02:13:36.096Z,0.00
2018-12-24T02:14:36.114Z,0.00
2018-12-24T02:15:36.067Z,0.00
2018-12-24T02:16:36.054Z,0.00
2018-12-24T02:17:36.044Z,0.00
2018-12-24T02:18:36.040Z,0.00
2018-12-24T02:19:36.026Z,0.00
2018-12-24T02:20:36.045Z,0.00
2018-12-24T02:21:36.002Z,0.00
2018-12-24T02:22:35.993Z,0.00
2018-12-24T02:23:35.986Z,0.00
2018-12-24T02:24:35.966Z,0.00
2018-12-24T02:25:35.976Z,0.00
2018-12-24T02:26:35.942Z,0.00
2018-12-24T02:27:35.932Z,0.00
2018-12-24T02:28:35.922Z,0.00
2018-12-24T02:29:35.910Z,0.00
2018-12-24T02:30:35.944Z,0.00
2018-12-24T02:31:35.890Z,0.00
2018-12-24T02:32:35.876Z,0.00
2018-12-24T02:33:35.870Z,0.00
2018-12-24T02:34:35.855Z,0.00
2018-12-24T02:35:35.875Z,0.00
2018-12-24T02:36:35.878Z,0.00
2018-12-24T02:37:35.821Z,0.00
2018-12-24T02:38:35.818Z,0.00
2018-12-24T02:39:35.799Z,0.00
2018-12-24T02:40:35.790Z,0.00
2018-12-24T02:41:35.798Z,0.00
2018-12-24T02:42:35.769Z,0.00
2018-12-24T02:43:35.751Z,0.00
2018-12-24T02:44:35.747Z,0.00
2018-12-24T02:45:35.734Z,0.00
2018-12-24T02:46:35.744Z,0.00
2018-12-24T02:47:35.708Z,0.00
2018-12-24T02:48:35.705Z,0.00
2018-12-24T02:49:35.734Z,0.00
2018-12-24T02:50:35.675Z,0.00
2018-12-24T02:51:35.685Z,0.00
2018-12-24T02:52:35.651Z,0.00
2018-12-24T02:53:35.641Z,0.00
2018-12-24T02:54:35.632Z,0.00
2018-12-24T02:55:35.619Z,0.00
2018-12-24T02:56:35.654Z,0.00
2018-12-24T02:57:35.596Z,0.00
2018-12-24T02:58:35.586Z,0.00
2018-12-24T02:59:35.573Z,0.00
2018-12-24T03:00:35.567Z,0.00
2018-12-24T03:01:43.863Z,0.00
2018-12-24T03:02:35.543Z,0.00
2018-12-24T03:03:35.534Z,0.00
2018-12-24T03:04:35.519Z,0.00
2018-12-24T03:05:35.506Z,0.00
2018-12-24T03:06:35.519Z,0.00
2018-12-24T03:07:35.509Z,0.00
2018-12-24T03:08:35.473Z,0.00
2018-12-24T03:09:35.464Z,0.00
2018-12-24T03:10:35.455Z,0.00
2018-12-24T03:11:35.448Z,0.00
2018-12-24T03:12:35.469Z,0.00
2018-12-24T03:13:35.431Z,0.00
2018-12-24T03:14:35.432Z,0.00
2018-12-24T03:15:35.401Z,0.00
2018-12-24T03:16:35.387Z,0.00
2018-12-24T03:17:35.407Z,0.00
2018-12-24T03:18:35.389Z,0.00
2018-12-24T03:19:35.395Z,0.00
2018-12-24T03:20:35.347Z,0.00
2018-12-24T03:21:35.389Z,0.00
2018-12-24T03:22:35.353Z,0.00
2018-12-24T03:23:35.322Z,0.00
2018-12-24T03:24:35.327Z,0.00
2018-12-24T03:25:35.285Z,0.00
2018-12-24T03:26:45.148Z,0.00
2018-12-24T03:27:35.271Z,0.00
2018-12-24T03:28:35.276Z,0.00
2018-12-24T03:29:35.240Z,0.00
2018-12-24T03:30:35.235Z,0.00
2018-12-24T03:31:35.235Z,0.00
2018-12-24T03:32:35.236Z,0.00
2018-12-24T03:33:35.228Z,0.00
2018-12-24T03:34:35.184Z,0.00
2018-12-24T03:35:35.175Z,0.00
2018-12-24T03:36:35.165Z,0.00
2018-12-24T03:37:35.179Z,0.00
2018-12-24T03:38:35.164Z,0.00
2018-12-24T03:39:35.127Z,0.00
2018-12-24T03:40:35.118Z,0.00
2018-12-24T03:41:44.448Z,0.00
2018-12-24T03:42:35.143Z,0.00
2018-12-24T03:43:35.171Z,0.00
2018-12-24T03:44:35.088Z,0.00
2018-12-24T03:45:35.063Z,0.00
2018-12-24T03:46:35.053Z,0.00
2018-12-24T03:47:35.047Z,0.00
2018-12-24T03:48:35.091Z,0.00
2018-12-24T03:49:35.101Z,0.00
2018-12-24T03:50:35.006Z,0.00
2018-12-24T03:51:34.996Z,0.00
2018-12-24T03:52:34.989Z,0.00
2018-12-24T03:53:34.988Z,0.00
2018-12-24T03:54:34.990Z,0.00
2018-12-24T03:55:35.004Z,0.00
2018-12-24T03:56:34.942Z,0.00
2018-12-24T03:57:34.928Z,0.00
2018-12-24T03:58:34.954Z,0.00
2018-12-24T03:59:34.936Z,0.00
2018-12-24T04:00:34.898Z,0.00
2018-12-24T04:01:34.913Z,0.00
2018-12-24T04:02:34.876Z,0.00
2018-12-24T04:03:34.887Z,0.00
2018-12-24T04:04:35.475Z,0.00
2018-12-24T04:05:43.151Z,0.00
2018-12-24T04:06:34.827Z,0.00
2018-12-24T04:07:34.816Z,0.00
2018-12-24T04:08:34.805Z,0.00
2018-12-24T04:09:34.914Z,0.00
2018-12-24T04:10:34.792Z,0.00
2018-12-24T04:11:34.774Z,0.00
2018-12-24T04:12:34.760Z,0.00
2018-12-24T04:13:34.750Z,0.00
2018-12-24T04:14:34.738Z,0.00
2018-12-24T04:15:34.753Z,0.00
2018-12-24T04:16:34.715Z,0.00
2018-12-24T04:17:34.703Z,0.00
2018-12-24T04:18:34.697Z,0.00
2018-12-24T04:19:34.679Z,0.00
2018-12-24T04:20:44.005Z,0.00
2018-12-24T04:21:34.660Z,0.00
2018-12-24T04:22:34.784Z,0.00
2018-12-24T04:23:34.638Z,0.00
2018-12-24T04:24:34.625Z,0.00
2018-12-24T04:25:34.714Z,0.00
2018-12-24T04:26:34.761Z,0.00
2018-12-24T04:27:41.786Z,0.00
2018-12-24T04:28:34.583Z,0.00
2018-12-24T04:29:34.573Z,0.00
2018-12-24T04:30:34.586Z,0.00
2018-12-24T04:31:34.602Z,0.00
2018-12-24T04:32:34.538Z,0.00
2018-12-24T04:33:34.539Z,0.00
2018-12-24T04:34:34.517Z,0.00
2018-12-24T04:35:34.531Z,0.00
2018-12-24T04:36:34.507Z,0.00
2018-12-24T04:37:34.517Z,0.00
2018-12-24T04:38:34.482Z,0.00
2018-12-24T04:39:34.529Z,0.00
2018-12-24T04:40:34.473Z,0.00
2018-12-24T04:41:34.435Z,0.00
2018-12-24T04:42:34.427Z,0.00
2018-12-24T04:43:34.413Z,0.00
2018-12-24T04:44:34.526Z,0.00
2018-12-24T04:45:34.488Z,0.00
2018-12-24T04:46:34.390Z,0.00
2018-12-24T04:47:34.387Z,0.00
2018-12-24T04:48:34.379Z,0.00
2018-12-24T04:49:34.360Z,0.00
2018-12-24T04:50:34.367Z,0.00
2018-12-24T04:51:34.344Z,0.00
2018-12-24T04:52:34.359Z,0.00
2018-12-24T04:53:34.330Z,0.00
2018-12-24T04:54:34.300Z,0.00
2018-12-24T04:55:34.341Z,0.00
2018-12-24T04:56:34.275Z,0.00
2018-12-24T04:57:34.258Z,0.00
2018-12-24T04:58:34.248Z,0.00
2018-12-24T04:59:34.240Z,0.00
2018-12-24T05:00:34.231Z,0.00
2018-12-24T05:01:34.283Z,0.00
2018-12-24T05:02:34.215Z,0.00
2018-12-24T05:03:34.195Z,0.00
2018-12-24T05:04:34.182Z,0.00
2018-12-24T05:05:34.187Z,0.00
2018-12-24T05:06:34.198Z,0.00
2018-12-24T05:07:34.145Z,0.00
2018-12-24T05:08:34.158Z,0.00
2018-12-24T05:09:34.158Z,0.00
2018-12-24T05:10:34.160Z,0.00
2018-12-24T05:11:34.258Z,0.00
2018-12-24T05:12:34.101Z,0.00
2018-12-24T05:13:40.907Z,0.00
2018-12-24T05:14:35.123Z,0.00
2018-12-24T05:15:34.057Z,0.00
2018-12-24T05:16:34.069Z,0.00
2018-12-24T05:17:34.040Z,0.00
2018-12-24T05:18:34.022Z,0.00
2018-12-24T05:19:34.032Z,0.00
2018-12-24T05:20:34.006Z,0.00
2018-12-24T05:21:34.026Z,0.00
2018-12-24T05:22:33.995Z,0.00
2018-12-24T05:23:33.978Z,0.00
2018-12-24T05:24:33.969Z,0.00
2018-12-24T05:25:33.954Z,0.00
2018-12-24T05:26:42.356Z,0.00
2018-12-24T05:27:33.926Z,0.00
2018-12-24T05:28:33.911Z,0.00
2018-12-24T05:29:33.901Z,0.00
2018-12-24T05:30:33.891Z,0.00
2018-12-24T05:31:33.878Z,0.00
2018-12-24T05:32:33.915Z,0.00
2018-12-24T05:33:33.859Z,0.00
2018-12-24T05:34:33.844Z,0.00
2018-12-24T05:35:33.842Z,0.00
2018-12-24T05:36:33.833Z,0.00
2018-12-24T05:37:33.839Z,0.00
2018-12-24T05:38:33.801Z,0.00
2018-12-24T05:39:33.792Z,0.00
2018-12-24T05:40:33.784Z,0.00
2018-12-24T05:41:33.766Z,0.00
2018-12-24T05:42:43.102Z,0.00
2018-12-24T05:43:33.746Z,0.00
2018-12-24T05:44:33.737Z,0.00
2018-12-24T05:45:33.721Z,0.00
2018-12-24T05:46:33.710Z,0.00
2018-12-24T05:47:33.726Z,0.00
2018-12-24T05:48:33.694Z,0.00
2018-12-24T05:49:33.680Z,0.00
2018-12-24T05:50:33.681Z,0.00
2018-12-24T05:51:33.667Z,0.00
2018-12-24T05:52:33.687Z,0.00
2018-12-24T05:53:33.638Z,0.00
2018-12-24T05:54:33.631Z,0.00
2018-12-24T05:55:33.627Z,0.00
2018-12-24T05:56:33.620Z,0.00
2018-12-24T05:57:33.670Z,0.00
2018-12-24T05:58:33.578Z,0.00
2018-12-24T05:59:33.583Z,0.00
2018-12-24T06:00:33.587Z,0.00
2018-12-24T06:01:33.558Z,0.00
2018-12-24T06:02:33.538Z,0.00
2018-12-24T06:03:33.553Z,0.00
2018-12-24T06:04:33.517Z,0.00
2018-12-24T06:05:33.498Z,0.00
2018-12-24T06:06:33.486Z,0.00
2018-12-24T06:07:33.474Z,0.00
2018-12-24T06:08:33.488Z,0.00
2018-12-24T06:09:33.471Z,0.00
2018-12-24T06:10:33.472Z,0.00
2018-12-24T06:11:41.697Z,0.00
2018-12-24T06:12:33.421Z,0.00
2018-12-24T06:13:33.442Z,0.00
2018-12-24T06:14:33.398Z,0.00
2018-12-24T06:15:33.385Z,0.00
2018-12-24T06:16:33.377Z,0.00
2018-12-24T06:17:33.364Z,0.00
2018-12-24T06:18:33.381Z,0.00
2018-12-24T06:19:33.344Z,0.00
2018-12-24T06:20:37.672Z,0.00
2018-12-24T06:21:33.321Z,0.00
2018-12-24T06:22:42.679Z,0.00
2018-12-24T06:23:33.322Z,0.00
2018-12-24T06:24:41.560Z,0.00
2018-12-24T06:25:33.278Z,0.00
2018-12-24T06:26:33.261Z,0.00
2018-12-24T06:27:33.252Z,0.00
2018-12-24T06:28:33.265Z,0.00
2018-12-24T06:29:33.231Z,0.00
2018-12-24T06:30:33.218Z,0.00
2018-12-24T06:31:33.209Z,0.00
2018-12-24T06:32:33.193Z,0.00
2018-12-24T06:33:33.206Z,0.00
2018-12-24T06:34:33.173Z,0.00
2018-12-24T06:35:33.172Z,0.00
2018-12-24T06:36:33.154Z,0.00
2018-12-24T06:37:33.141Z,0.00
2018-12-24T06:38:33.161Z,0.00
2018-12-24T06:39:41.416Z,0.00
2018-12-24T06:40:33.105Z,0.00
2018-12-24T06:41:33.095Z,0.00
2018-12-24T06:42:33.098Z,0.00
2018-12-24T06:43:33.070Z,0.00
2018-12-24T06:44:33.082Z,0.00
2018-12-24T06:45:33.053Z,0.00
2018-12-24T06:46:33.038Z,0.00
2018-12-24T06:47:33.034Z,0.00
2018-12-24T06:48:33.016Z,0.00
2018-12-24T06:49:33.070Z,0.00
2018-12-24T06:50:32.995Z,0.00
2018-12-24T06:51:32.982Z,0.00
2018-12-24T06:52:32.974Z,0.00
2018-12-24T06:53:32.967Z,0.00
2018-12-24T06:54:32.982Z,0.00
2018-12-24T06:55:32.938Z,0.00
2018-12-24T06:56:32.937Z,0.00
2018-12-24T06:57:32.915Z,0.00
2018-12-24T06:58:32.906Z,0.00
2018-12-24T06:59:32.916Z,0.00
2018-12-24T07:00:32.889Z,0.00
2018-12-24T07:01:32.874Z,0.00
2018-12-24T07:02:32.864Z,0.00
2018-12-24T07:03:32.847Z,0.00
2018-12-24T07:04:32.859Z,0.00
2018-12-24T07:05:32.827Z,0.00
2018-12-24T07:06:32.815Z,0.00
2018-12-24T07:07:32.804Z,0.00
2018-12-24T07:08:41.698Z,4.00
2018-12-24T07:09:32.834Z,0.00
2018-12-24T07:10:32.775Z,4.00
2018-12-24T07:11:32.756Z,0.00
2018-12-24T07:12:32.748Z,4.00
2018-12-24T07:13:32.734Z,4.00
2018-12-24T07:14:32.725Z,4.00
2018-12-24T07:15:32.733Z,8.00
2018-12-24T07:16:40.919Z,4.00
2018-12-24T07:17:41.049Z,8.00
2018-12-24T07:18:32.682Z,8.00
2018-12-24T07:19:32.670Z,8.00
2018-12-24T07:20:32.679Z,8.00
2018-12-24T07:21:32.644Z,8.00
2018-12-24T07:22:32.636Z,12.00
2018-12-24T07:23:32.622Z,12.00
2018-12-24T07:24:32.610Z,16.00
2018-12-24T07:25:32.623Z,16.00
2018-12-24T07:26:32.594Z,20.00
2018-12-24T07:27:32.576Z,20.00
2018-12-24T07:28:32.564Z,20.00
2018-12-24T07:29:32.554Z,24.00
2018-12-24T07:30:32.569Z,24.00
2018-12-24T07:31:32.547Z,28.00
2018-12-24T07:32:41.034Z,32.00
2018-12-24T07:33:32.511Z,32.00
2018-12-24T07:34:32.955Z,40.00
2018-12-24T07:35:32.511Z,44.00
2018-12-24T07:36:41.764Z,44.00
2018-12-24T07:37:32.467Z,52.00
2018-12-24T07:38:32.459Z,56.00
2018-12-24T07:39:32.443Z,60.00
2018-12-24T07:40:32.623Z,64.00
2018-12-24T07:41:32.422Z,60.00
2018-12-24T07:42:32.488Z,60.00
2018-12-24T07:43:32.400Z,64.00
2018-12-24T07:44:32.384Z,72.00
2018-12-24T07:45:32.413Z,84.00
2018-12-24T07:46:32.362Z,92.00
2018-12-24T07:47:41.774Z,92.00
2018-12-24T07:48:32.343Z,96.00
2018-12-24T07:49:32.332Z,96.00
2018-12-24T07:50:32.320Z,112.00
2018-12-24T07:51:32.331Z,116.00
2018-12-24T07:52:40.677Z,124.00
2018-12-24T07:53:32.301Z,132.00
2018-12-24T07:54:32.288Z,144.00
2018-12-24T07:55:32.261Z,148.00
2018-12-24T07:56:32.294Z,152.00
2018-12-24T07:57:32.242Z,160.00
2018-12-24T07:58:32.226Z,156.00
2018-12-24T07:59:32.216Z,168.00
2018-12-24T08:00:32.206Z,176.00
2018-12-24T08:02:42.319Z,196.00
2018-12-24T08:03:42.227Z,196.00
2018-12-24T08:04:51.821Z,180.00
2018-12-24T08:05:42.205Z,164.00
2018-12-24T08:06:42.218Z,160.00
2018-12-24T08:07:42.188Z,156.00
2018-12-24T08:08:42.172Z,140.00
2018-12-24T08:09:42.160Z,136.00
2018-12-24T08:10:42.147Z,140.00
2018-12-24T08:11:42.160Z,156.00
2018-12-24T08:12:42.130Z,180.00
2018-12-24T08:13:42.707Z,200.00
2018-12-24T08:14:42.106Z,216.00
2018-12-24T08:15:42.180Z,232.00
2018-12-24T08:16:42.212Z,228.00
2018-12-24T08:17:42.070Z,236.00
2018-12-24T08:18:42.062Z,240.00
2018-12-24T08:19:42.047Z,240.00
2018-12-24T08:20:42.044Z,232.00
2018-12-24T08:21:42.028Z,232.00
2018-12-24T08:22:42.041Z,240.00
2018-12-24T08:23:42.003Z,260.00
2018-12-24T08:24:41.997Z,264.00
2018-12-24T08:25:41.998Z,248.00
2018-12-24T08:26:41.971Z,264.00
2018-12-24T08:27:41.988Z,256.00
2018-12-24T08:28:41.947Z,236.00
2018-12-24T08:29:41.940Z,240.00
2018-12-24T08:30:41.927Z,248.00
2018-12-24T08:31:41.986Z,256.00
2018-12-24T08:32:41.951Z,256.00
2018-12-24T08:33:41.891Z,236.00
2018-12-24T08:34:41.878Z,216.00
2018-12-24T08:35:41.869Z,212.00
2018-12-24T08:36:41.860Z,204.00
2018-12-24T08:37:41.874Z,228.00
2018-12-24T08:38:41.839Z,244.00
2018-12-24T08:39:41.855Z,236.00
2018-12-24T08:40:41.815Z,204.00
2018-12-24T08:41:41.802Z,176.00
2018-12-24T08:42:41.811Z,164.00
2018-12-24T08:43:42.014Z,188.00
2018-12-24T08:44:42.183Z,192.00
2018-12-24T08:45:41.756Z,208.00
2018-12-24T08:46:41.747Z,208.00
2018-12-24T08:47:41.788Z,184.00
2018-12-24T08:48:41.732Z,200.00
2018-12-24T08:49:42.493Z,228.00
2018-12-24T08:50:41.700Z,220.00
2018-12-24T08:51:41.741Z,232.00
2018-12-24T08:52:41.987Z,212.00
2018-12-24T08:53:41.671Z,208.00
2018-12-24T08:54:41.657Z,188.00
2018-12-24T08:55:41.654Z,156.00
2018-12-24T08:56:41.653Z,128.00
2018-12-24T08:57:41.652Z,128.00
2018-12-24T08:58:41.639Z,152.00
2018-12-24T08:59:41.601Z,188.00
2018-12-24T09:00:41.589Z,200.00
2018-12-24T09:01:41.578Z,196.00
2018-12-24T09:02:41.570Z,176.00
2018-12-24T09:03:41.579Z,160.00
2018-12-24T09:04:41.547Z,156.00
2018-12-24T09:05:41.537Z,160.00
2018-12-24T09:06:41.525Z,176.00
2018-12-24T09:07:41.512Z,196.00
2018-12-24T09:08:41.525Z,216.00
2018-12-24T09:09:49.975Z,212.00
2018-12-24T09:10:41.689Z,276.00
2018-12-24T09:11:41.469Z,360.00
2018-12-24T09:12:41.456Z,432.00
2018-12-24T09:13:49.896Z,468.00
2018-12-24T09:14:41.433Z,400.00
2018-12-24T09:15:41.422Z,368.00
2018-12-24T09:16:41.488Z,428.00
2018-12-24T09:17:41.400Z,468.00
2018-12-24T09:18:41.432Z,480.00
2018-12-24T09:19:51.482Z,408.00
2018-12-24T09:20:52.703Z,392.00
2018-12-24T09:21:41.354Z,504.00
2018-12-24T09:22:41.344Z,456.00
2018-12-24T09:23:41.332Z,372.00
2018-12-24T09:24:41.344Z,312.00
2018-12-24T09:25:41.311Z,308.00
2018-12-24T09:26:41.300Z,296.00
2018-12-24T09:27:41.288Z,276.00
2018-12-24T09:28:41.278Z,280.00
2018-12-24T09:29:41.291Z,264.00
2018-12-24T09:30:41.258Z,248.00
2018-12-24T09:31:41.243Z,244.00
2018-12-24T09:32:41.236Z,240.00
2018-12-24T09:33:41.221Z,248.00
2018-12-24T09:34:41.233Z,272.00
2018-12-24T09:35:41.205Z,284.00
2018-12-24T09:36:41.190Z,312.00
2018-12-24T09:37:41.176Z,340.00
2018-12-24T09:38:41.169Z,352.00
2018-12-24T09:39:41.177Z,452.00
2018-12-24T09:40:50.843Z,440.00
2018-12-24T09:41:41.480Z,380.00
2018-12-24T09:42:41.120Z,344.00
2018-12-24T09:43:41.112Z,316.00
2018-12-24T09:44:41.121Z,292.00
2018-12-24T09:45:41.087Z,304.00
2018-12-24T09:46:49.743Z,328.00
2018-12-24T09:47:41.065Z,348.00
2018-12-24T09:48:41.057Z,356.00
2018-12-24T09:49:41.066Z,368.00
2018-12-24T09:50:41.066Z,384.00
2018-12-24T09:51:41.024Z,380.00
2018-12-24T09:52:41.022Z,352.00
2018-12-24T09:53:41.000Z,328.00
2018-12-24T09:54:41.291Z,372.00
2018-12-24T09:55:40.980Z,376.00
2018-12-24T09:56:40.967Z,364.00
2018-12-24T09:57:40.953Z,340.00
2018-12-24T09:58:40.941Z,324.00
2018-12-24T09:59:40.930Z,304.00
2018-12-24T10:00:40.942Z,264.00
2018-12-24T10:01:40.912Z,260.00
2018-12-24T10:02:40.897Z,288.00
2018-12-24T10:03:40.942Z,256.00
2018-12-24T10:04:40.892Z,228.00
2018-12-24T10:05:40.940Z,220.00
2018-12-24T10:06:40.853Z,220.00
2018-12-24T10:07:40.903Z,224.00
2018-12-24T10:08:50.615Z,216.00
2018-12-24T10:09:40.926Z,204.00
2018-12-24T10:10:40.843Z,192.00
2018-12-24T10:11:40.797Z,220.00
2018-12-24T10:12:40.787Z,240.00
2018-12-24T10:13:40.931Z,240.00
2018-12-24T10:14:40.769Z,220.00
2018-12-24T10:15:40.780Z,228.00
2018-12-24T10:16:40.740Z,220.00
2018-12-24T10:17:41.308Z,224.00
2018-12-24T10:18:41.412Z,224.00
2018-12-24T10:19:50.475Z,232.00
2018-12-24T10:20:40.722Z,268.00
2018-12-24T10:21:40.686Z,296.00
2018-12-24T10:22:40.674Z,340.00
2018-12-24T10:23:41.182Z,428.00
2018-12-24T10:24:40.653Z,488.00
2018-12-24T10:25:40.676Z,536.00
2018-12-24T10:26:40.682Z,492.00
2018-12-24T10:27:40.775Z,444.00
2018-12-24T10:28:40.611Z,436.00
2018-12-24T10:29:40.601Z,464.00
2018-12-24T10:30:40.658Z,536.00
2018-12-24T10:31:50.103Z,540.00
2018-12-24T10:32:40.562Z,572.00
2018-12-24T10:33:40.551Z,704.00
2018-12-24T10:34:40.540Z,936.00
2018-12-24T10:35:40.531Z,1108.00
2018-12-24T10:36:40.628Z,1268.00
2018-12-24T10:37:40.505Z,1608.00
2018-12-24T10:38:40.496Z,2012.00
2018-12-24T10:39:40.557Z,1916.00
2018-12-24T10:40:50.254Z,1852.00
2018-12-24T10:41:41.385Z,2320.00
2018-12-24T10:42:40.458Z,2492.00
2018-12-24T10:43:40.452Z,2428.00
2018-12-24T10:44:40.428Z,2360.00
2018-12-24T10:45:40.739Z,2360.00
2018-12-24T10:46:40.433Z,2404.00
2018-12-24T10:47:48.784Z,2116.00
2018-12-24T10:48:49.690Z,1860.00
2018-12-24T10:49:40.387Z,1680.00
2018-12-24T10:50:40.361Z,1456.00
2018-12-24T10:51:40.372Z,1628.00
2018-12-24T10:52:40.338Z,1632.00
2018-12-24T10:53:40.331Z,1352.00
2018-12-24T10:54:40.319Z,1412.00
2018-12-24T10:55:50.468Z,1480.00
2018-12-24T10:56:40.324Z,1348.00
2018-12-24T10:57:49.661Z,1320.00
2018-12-24T10:58:40.272Z,1148.00
2018-12-24T10:59:40.261Z,1040.00
2018-12-24T11:00:40.249Z,872.00
2018-12-24T11:01:40.273Z,732.00
2018-12-24T11:02:40.231Z,644.00
2018-12-24T11:03:40.267Z,616.00
2018-12-24T11:04:40.214Z,700.00
2018-12-24T11:05:40.236Z,768.00
2018-12-24T11:06:40.186Z,928.00
2018-12-24T11:07:40.306Z,1092.00
2018-12-24T11:08:40.168Z,1240.00
2018-12-24T11:09:50.743Z,1508.00
2018-12-24T11:10:40.159Z,1548.00
2018-12-24T11:11:40.133Z,1648.00
2018-12-24T11:12:40.140Z,1832.00
2018-12-24T11:13:40.105Z,1836.00
2018-12-24T11:14:40.093Z,1512.00
2018-12-24T11:15:40.091Z,1720.00
2018-12-24T11:16:40.073Z,2740.00
2018-12-24T11:17:49.863Z,3024.00
2018-12-24T11:18:40.049Z,2924.00
2018-12-24T11:19:40.042Z,2796.00
2018-12-24T11:20:40.026Z,2788.00
2018-12-24T11:21:40.016Z,2988.00
2018-12-24T11:22:40.028Z,2968.00
2018-12-24T11:23:39.993Z,2752.00
2018-12-24T11:24:39.982Z,2680.00
2018-12-24T11:25:50.034Z,2724.00
2018-12-24T11:26:39.961Z,11024.00
2018-12-24T11:27:39.981Z,11612.00
2018-12-24T11:28:49.452Z,14496.00
2018-12-24T11:29:39.927Z,13160.00
2018-12-24T11:30:39.919Z,13856.00
2018-12-24T11:31:39.906Z,13432.00
2018-12-24T11:32:39.920Z,7816.00
2018-12-24T11:33:39.881Z,14848.00
2018-12-24T11:34:39.871Z,15904.00
2018-12-24T11:35:39.898Z,16608.00
2018-12-24T11:36:39.848Z,13100.00
2018-12-24T11:37:39.859Z,17664.00
2018-12-24T11:38:50.911Z,17280.00
2018-12-24T11:39:39.821Z,18272.00
2018-12-24T11:40:39.804Z,18048.00
2018-12-24T11:41:49.568Z,20416.00
2018-12-24T11:42:39.843Z,23296.00
2018-12-24T11:43:39.773Z,25632.00
2018-12-24T11:44:39.759Z,25408.00
2018-12-24T11:45:39.748Z,30816.00
2018-12-24T11:46:39.737Z,23968.00
2018-12-24T11:47:39.734Z,19904.00
2018-12-24T11:48:39.748Z,20864.00
2018-12-24T11:49:39.710Z,21280.00
2018-12-24T11:50:39.693Z,21504.00
2018-12-24T11:51:39.682Z,21472.00
2018-12-24T11:52:39.679Z,21792.00
2018-12-24T11:53:39.697Z,23648.00
2018-12-24T11:54:51.600Z,27264.00
2018-12-24T11:55:39.644Z,30016.00
2018-12-24T11:57:35.095Z,30208.00
2018-12-24T11:58:35.106Z,29920.00
2018-12-24T11:59:35.067Z,27168.00
2018-12-24T12:00:35.057Z,26752.00
2018-12-24T12:01:35.045Z,29792.00
2018-12-24T12:02:35.049Z,30528.00
2018-12-24T12:03:35.060Z,30720.00
2018-12-24T12:04:35.011Z,30688.00
2018-12-24T12:05:35.002Z,29312.00
2018-12-24T12:06:35.011Z,25856.00
2018-12-24T12:07:34.979Z,20256.00
2018-12-24T12:08:34.991Z,18528.00
2018-12-24T12:09:34.983Z,13120.00
2018-12-24T12:10:34.946Z,14528.00
2018-12-24T12:11:34.935Z,1556.00
2018-12-24T12:12:34.935Z,1156.00
2018-12-24T12:13:34.966Z,1012.00
2018-12-24T12:14:34.903Z,904.00
2018-12-24T12:15:42.343Z,980.00
2018-12-24T12:16:34.885Z,1064.00
2018-12-24T12:17:34.873Z,1400.00
2018-12-24T12:18:34.901Z,1952.00
2018-12-24T12:19:34.848Z,2020.00
2018-12-24T12:20:34.843Z,1652.00
2018-12-24T12:21:34.824Z,1484.00
2018-12-24T12:22:34.815Z,1648.00
2018-12-24T12:23:34.804Z,4200.00
2018-12-24T12:24:34.825Z,2116.00
2018-12-24T12:25:34.784Z,1804.00
2018-12-24T12:26:34.769Z,1392.00
2018-12-24T12:27:34.772Z,1204.00
2018-12-24T12:28:34.747Z,1224.00
2018-12-24T12:29:34.760Z,1280.00
2018-12-24T12:31:29.515Z,1432.00
2018-12-24T12:32:29.495Z,1440.00
2018-12-24T12:33:29.498Z,1548.00
2018-12-24T12:34:29.496Z,1468.00
2018-12-24T12:35:29.461Z,1484.00
2018-12-24T12:36:29.449Z,1560.00
2018-12-24T12:37:29.441Z,5836.00
2018-12-24T12:38:29.938Z,5028.00
2018-12-24T12:40:40.065Z,3680.00
2018-12-24T12:41:40.030Z,3244.00
2018-12-24T12:42:40.022Z,2892.00
2018-12-24T12:43:40.008Z,2600.00
2018-12-24T12:44:40.018Z,2384.00
2018-12-24T12:45:39.988Z,2288.00
2018-12-24T12:46:39.974Z,2240.00
2018-12-24T12:47:49.985Z,2480.00
2018-12-24T12:48:40.017Z,2772.00
2018-12-24T12:49:39.969Z,2680.00
2018-12-24T12:50:39.932Z,2400.00
2018-12-24T12:51:39.926Z,2196.00
2018-12-24T12:52:40.036Z,2080.00
2018-12-24T12:53:40.208Z,1748.00
2018-12-24T12:54:40.108Z,1668.00
2018-12-24T12:55:39.911Z,1816.00